LFBD/BOD METAR and TAF weather

Enter ICAO airport designator
Station Type Date Time Source
LFBD METAR 2021/09/28 16:00 UTC NOAA

LFBD 281600Z AUTO 17003KT 9999 OVC043 17/13 Q1021 BECMG 25010KT


Station Type Date Time Source
LFBD Decoded METAR 2021/09/28 16:00 UTC NOAA

Bordeaux / Merignac, France (LFBD) 44-50N 000-42W 61M
Sep 28, 2021 - 12:00 PM EDT / 2021.09.28 1600 UTC
Wind: from the S (170 degrees) at 3 MPH (3 KT):0
Visibility: greater than 7 mile(s):0
Sky conditions: overcast
Temperature: 62 F (17 C)
Dew Point: 55 F (13 C)
Relative Humidity: 77%
Pressure (altimeter): 30.15 in. Hg (1021 hPa)
ob: LFBD 281600Z AUTO 17003KT 9999 OVC043 17/13 Q1021 BECMG 25010KT
cycle: 16

Station Type Date Time Source
LFBD TAF 2021/09/28 12:42 UTC NOAA

TAF TAF LFBD 281100Z 2812/2918 15005KT CAVOK TX20/2815Z TN12/2904Z
BECMG 2816/2818 25010KT BKN040
TEMPO 2818/2824 -RA
TEMPO 2904/2908 3000 RA BKN010
TEMPO 2908/2912 BKN010
BECMG 2912/2914 32010KT CAVOK

Example: see airport list